createdAt,value
2019-04-11T00:00:19.505Z,164.15
2019-04-11T00:01:56.397Z,130.18
2019-04-11T00:03:31.082Z,139.00
2019-04-11T00:05:06.418Z,156.17
2019-04-11T00:06:41.428Z,113.30
2019-04-11T00:08:15.764Z,187.97
2019-04-11T00:09:51.212Z,103.67
2019-04-11T00:11:26.001Z,64.67
2019-04-11T00:13:01.275Z,75.83
2019-04-11T00:14:36.628Z,54.23
2019-04-11T00:16:11.106Z,45.40
2019-04-11T00:17:45.982Z,37.28
2019-04-11T00:19:21.147Z,36.15
2019-04-11T00:20:56.175Z,38.80
2019-04-11T00:22:31.328Z,37.38
2019-04-11T00:24:06.743Z,34.08
2019-04-11T00:25:42.041Z,40.98
2019-04-11T00:27:17.081Z,66.33
2019-04-11T00:28:52.097Z,52.00
2019-04-11T00:30:28.209Z,78.52
2019-04-11T00:32:05.868Z,99.87
2019-04-11T00:33:38.581Z,109.57
2019-04-11T00:35:12.665Z,89.40
2019-04-11T00:36:46.424Z,65.47
2019-04-11T00:38:21.443Z,78.95
2019-04-11T00:39:56.295Z,80.97
2019-04-11T00:41:31.251Z,81.77
2019-04-11T00:43:07.353Z,109.40
2019-04-11T00:44:41.226Z,115.20
2019-04-11T00:46:14.877Z,91.57
2019-04-11T00:47:49.521Z,137.50
2019-04-11T00:49:24.198Z,109.43
2019-04-11T00:50:57.882Z,133.63
2019-04-11T00:52:32.155Z,125.45
2019-04-11T00:54:06.689Z,176.40
2019-04-11T00:55:40.510Z,373.17
2019-04-11T00:57:14.900Z,210.10
2019-04-11T00:58:49.859Z,200.50
2019-04-11T01:00:23.913Z,347.80
2019-04-11T01:01:58.834Z,192.60
2019-04-11T01:03:32.578Z,226.17
2019-04-11T01:05:07.557Z,234.27
2019-04-11T01:06:42.557Z,186.93
2019-04-11T01:08:16.322Z,207.13
2019-04-11T01:09:50.701Z,239.13
2019-04-11T01:11:24.945Z,244.67
2019-04-11T01:12:59.441Z,227.22
2019-04-11T01:14:34.044Z,291.40
2019-04-11T01:16:20.182Z,284.60
2019-04-11T01:17:54.051Z,245.93
2019-04-11T01:19:28.969Z,327.53
2019-04-11T01:21:04.057Z,269.23
2019-04-11T01:22:38.548Z,296.52
2019-04-11T01:24:12.535Z,330.20
2019-04-11T01:25:48.501Z,267.73
2019-04-11T01:27:23.626Z,258.63
2019-04-11T01:28:58.690Z,244.60
2019-04-11T01:30:38.796Z,212.45
2019-04-11T01:32:13.893Z,264.10
2019-04-11T01:33:48.381Z,286.43
2019-04-11T01:35:23.529Z,310.65
2019-04-11T01:36:58.166Z,279.73
2019-04-11T01:38:34.653Z,333.93
2019-04-11T01:40:09.848Z,328.53
2019-04-11T01:41:44.772Z,247.40
2019-04-11T01:43:19.863Z,240.03
2019-04-11T01:44:54.838Z,261.77
2019-04-11T01:46:29.809Z,181.28
2019-04-11T01:48:17.412Z,250.50
2019-04-11T01:49:52.490Z,253.58
2019-04-11T01:51:27.969Z,229.75
2019-04-11T01:53:02.625Z,247.27
2019-04-11T01:54:37.608Z,223.72
2019-04-11T01:56:14.782Z,176.15
2019-04-11T01:57:49.901Z,192.35
2019-04-11T01:59:24.278Z,178.23
2019-04-11T02:01:00.712Z,207.17
2019-04-11T02:02:42.368Z,214.97
2019-04-11T02:04:19.473Z,199.00
2019-04-11T02:05:53.834Z,276.52
2019-04-11T02:07:28.892Z,186.90
2019-04-11T02:09:05.973Z,154.50
2019-04-11T02:10:41.234Z,130.45
2019-04-11T02:12:16.161Z,117.80
2019-04-11T02:13:50.360Z,163.47
2019-04-11T02:15:26.483Z,129.18
2019-04-11T02:17:02.395Z,236.72
2019-04-11T02:18:37.287Z,248.27
2019-04-11T02:20:12.540Z,150.07
2019-04-11T02:21:47.927Z,127.27
2019-04-11T02:23:23.988Z,141.32
2019-04-11T02:25:00.503Z,180.67
2019-04-11T02:26:37.611Z,423.70
2019-04-11T02:28:14.726Z,154.63
2019-04-11T02:29:50.840Z,170.62
2019-04-11T02:31:26.314Z,184.22
2019-04-11T02:33:00.818Z,279.95
2019-04-11T02:34:35.247Z,245.37
2019-04-11T02:36:11.844Z,205.07
2019-04-11T02:37:47.603Z,137.82
2019-04-11T02:39:22.925Z,127.75
2019-04-11T02:40:57.873Z,142.87
2019-04-11T02:42:32.984Z,157.20
2019-04-11T02:44:28.634Z,109.67
2019-04-11T02:45:56.973Z,102.67
2019-04-11T02:47:24.231Z,115.45
2019-04-11T02:48:59.382Z,100.42
2019-04-11T02:50:34.522Z,116.03
2019-04-11T02:52:11.163Z,110.45
2019-04-11T02:53:47.132Z,82.08
2019-04-11T02:55:22.222Z,101.67
2019-04-11T02:56:57.736Z,89.22
2019-04-11T02:58:34.450Z,102.70
2019-04-11T03:00:10.571Z,73.42
2019-04-11T03:01:46.441Z,93.82
2019-04-11T03:03:23.265Z,88.72
2019-04-11T03:04:57.694Z,94.77
2019-04-11T03:06:33.250Z,94.73
2019-04-11T03:08:11.418Z,71.33
2019-04-11T03:09:44.036Z,79.23
2019-04-11T03:11:21.393Z,100.13
2019-04-11T03:12:56.837Z,102.30
2019-04-11T03:14:46.087Z,114.33
2019-04-11T03:16:21.771Z,110.50
2019-04-11T03:17:44.623Z,115.70
2019-04-11T03:19:35.782Z,129.73
2019-04-11T03:20:57.629Z,132.90
2019-04-11T03:22:30.051Z,111.47
2019-04-11T03:24:06.136Z,128.13
2019-04-11T03:25:40.616Z,106.40
2019-04-11T03:27:15.518Z,145.27
2019-04-11T03:28:54.016Z,106.93
2019-04-11T03:30:44.695Z,110.10
2019-04-11T03:32:40.080Z,126.37
2019-04-11T03:34:31.413Z,122.72
2019-04-11T03:37:19.336Z,116.67
2019-04-11T03:38:48.236Z,104.63
2019-04-11T03:40:22.430Z,97.60
2019-04-11T03:41:52.362Z,81.90
2019-04-11T03:43:24.153Z,87.20
2019-04-11T03:44:54.815Z,85.93
2019-04-11T03:46:40.144Z,89.43
2019-04-11T03:48:10.842Z,64.13
2019-04-11T03:49:43.438Z,70.77
2019-04-11T03:51:08.833Z,76.57
2019-04-11T03:52:45.030Z,68.47
2019-04-11T03:54:18.996Z,68.70
2019-04-11T03:55:53.857Z,76.90
2019-04-11T03:57:27.787Z,64.83
2019-04-11T03:59:04.072Z,44.90
2019-04-11T04:00:42.510Z,43.17
2019-04-11T04:02:16.829Z,40.73
2019-04-11T04:03:53.937Z,38.70
2019-04-11T04:05:32.222Z,54.73
2019-04-11T04:07:04.938Z,79.62
2019-04-11T04:08:40.399Z,69.30
2019-04-11T04:10:15.748Z,57.17
2019-04-11T04:11:54.444Z,62.95
2019-04-11T04:13:31.799Z,64.00
2019-04-11T04:15:29.616Z,63.33
2019-04-11T04:17:06.977Z,79.63
2019-04-11T04:18:43.787Z,68.47
2019-04-11T04:20:21.486Z,85.83
2019-04-11T04:22:16.074Z,63.90
2019-04-11T04:23:51.867Z,60.67
2019-04-11T04:25:28.410Z,120.27
2019-04-11T04:27:04.639Z,376.65
2019-04-11T04:28:40.773Z,149.43
2019-04-11T04:30:15.907Z,101.90
2019-04-11T04:31:51.055Z,114.90
2019-04-11T04:33:28.774Z,103.22
2019-04-11T04:35:02.760Z,225.47
2019-04-11T04:36:37.915Z,105.03
2019-04-11T04:38:13.500Z,155.33
2019-04-11T04:39:51.861Z,159.03
2019-04-11T04:41:37.382Z,202.90
2019-04-11T04:43:07.087Z,77.15
2019-04-11T04:44:40.435Z,84.63
2019-04-11T04:46:29.856Z,153.00
2019-04-11T04:47:56.866Z,116.67
2019-04-11T04:49:27.905Z,116.07
2019-04-11T04:51:06.249Z,181.50
2019-04-11T04:52:38.189Z,107.17
2019-04-11T04:54:14.193Z,41.95
2019-04-11T04:55:50.201Z,43.80
2019-04-11T04:57:24.706Z,69.15
2019-04-11T04:59:02.585Z,49.20
2019-04-11T05:00:37.689Z,43.68
2019-04-11T05:02:12.947Z,23.25
2019-04-11T05:03:48.636Z,30.23
2019-04-11T05:05:24.382Z,27.58
2019-04-11T05:06:59.162Z,29.07
2019-04-11T05:08:34.713Z,27.35
2019-04-11T05:10:11.108Z,26.68
2019-04-11T05:11:46.662Z,26.73
2019-04-11T05:13:21.663Z,35.03
2019-04-11T05:14:56.681Z,27.85
2019-04-11T05:16:30.924Z,29.30
2019-04-11T05:18:06.098Z,24.47
2019-04-11T05:19:41.147Z,26.30
2019-04-11T05:21:15.426Z,25.05
2019-04-11T05:22:49.715Z,24.98
2019-04-11T05:24:24.012Z,25.35
2019-04-11T05:25:57.865Z,22.70
2019-04-11T05:27:32.175Z,23.00
2019-04-11T05:29:06.494Z,25.95
2019-04-11T05:30:40.199Z,26.50
2019-04-11T05:32:15.430Z,28.20
2019-04-11T05:33:49.764Z,27.47
2019-04-11T05:35:24.920Z,26.37
2019-04-11T05:36:59.420Z,22.87
2019-04-11T05:38:33.882Z,24.15
2019-04-11T05:40:09.282Z,30.95
2019-04-11T05:41:46.642Z,33.13
2019-04-11T05:43:19.915Z,35.92
2019-04-11T05:44:54.780Z,33.55
2019-04-11T05:46:35.539Z,30.80
2019-04-11T05:48:06.388Z,32.70
2019-04-11T05:49:52.640Z,27.87
2019-04-11T05:51:36.949Z,32.73
2019-04-11T05:53:03.889Z,31.85
2019-04-11T05:54:46.440Z,29.52
2019-04-11T05:56:20.308Z,33.30
2019-04-11T05:57:55.915Z,23.73
2019-04-11T05:59:30.723Z,27.77
2019-04-11T06:01:27.325Z,27.60
2019-04-11T06:03:03.807Z,26.87
2019-04-11T06:04:40.571Z,29.32
2019-04-11T06:06:36.086Z,31.82
2019-04-11T06:08:09.863Z,30.10
2019-04-11T06:09:46.263Z,30.80
2019-04-11T06:11:24.043Z,27.20
2019-04-11T06:13:05.353Z,29.52
2019-04-11T06:14:43.648Z,26.02
2019-04-11T06:16:18.791Z,24.60
2019-04-11T06:17:54.291Z,33.25
2019-04-11T06:19:30.595Z,43.73
2019-04-11T06:21:22.594Z,49.70
2019-04-11T06:22:58.446Z,60.70
2019-04-11T06:24:50.171Z,52.40
2019-04-11T06:26:32.387Z,65.92
2019-04-11T06:28:09.502Z,77.35
2019-04-11T06:29:52.882Z,79.55
2019-04-11T06:31:45.486Z,72.42
2019-04-11T06:33:22.598Z,73.02
2019-04-11T06:35:03.992Z,68.52
2019-04-11T06:36:41.207Z,73.10
2019-04-11T06:38:26.809Z,76.60
2019-04-11T06:40:04.099Z,74.07
2019-04-11T06:41:43.095Z,68.57
2019-04-11T06:43:25.691Z,63.28
2019-04-11T06:45:02.237Z,61.63
2019-04-11T06:46:49.549Z,90.55
2019-04-11T06:48:35.965Z,72.30
2019-04-11T06:50:28.314Z,78.47
2019-04-11T06:52:04.567Z,74.32
2019-04-11T06:53:40.437Z,78.97
2019-04-11T06:55:32.966Z,74.30
2019-04-11T06:57:09.379Z,69.20
2019-04-11T06:58:51.024Z,82.65
2019-04-11T07:00:23.739Z,100.83
2019-04-11T07:02:08.817Z,90.95
2019-04-11T07:03:53.180Z,114.43
2019-04-11T07:05:29.291Z,104.60
2019-04-11T07:07:06.487Z,76.67
2019-04-11T07:08:49.043Z,74.15
2019-04-11T07:10:40.062Z,86.37
2019-04-11T07:12:15.871Z,94.47
2019-04-11T07:13:51.167Z,87.13
2019-04-11T07:15:27.225Z,89.90
2019-04-11T07:17:18.962Z,84.10
2019-04-11T07:19:00.611Z,82.10
2019-04-11T07:20:45.736Z,87.30
2019-04-11T07:22:39.521Z,98.70
2019-04-11T07:24:24.686Z,102.65
2019-04-11T07:26:00.779Z,110.32
2019-04-11T07:27:36.568Z,92.22
2019-04-11T07:29:29.256Z,86.83
2019-04-11T07:31:21.649Z,100.00
2019-04-11T07:32:57.968Z,94.80
2019-04-11T07:34:40.222Z,93.00
2019-04-11T07:36:33.805Z,80.77
2019-04-11T07:38:10.071Z,89.25
2019-04-11T07:40:02.971Z,89.35
2019-04-11T07:41:39.976Z,89.65
2019-04-11T07:43:16.920Z,86.50
2019-04-11T07:44:55.403Z,103.60
2019-04-11T07:46:31.139Z,117.40
2019-04-11T07:48:07.195Z,110.77
2019-04-11T07:49:50.215Z,87.05
2019-04-11T07:51:25.418Z,121.90
2019-04-11T07:53:03.061Z,107.07
2019-04-11T07:54:38.884Z,103.15
2019-04-11T07:56:15.086Z,87.53
2019-04-11T07:58:08.443Z,94.25
2019-04-11T08:00:00.149Z,79.90
2019-04-11T08:01:36.100Z,91.05
2019-04-11T08:03:27.720Z,77.23
2019-04-11T08:05:11.047Z,50.98
2019-04-11T08:06:59.041Z,47.53
2019-04-11T08:08:44.637Z,43.10
2019-04-11T08:10:23.214Z,55.23
2019-04-11T08:12:00.275Z,89.70
2019-04-11T08:13:36.818Z,54.15
2019-04-11T08:15:30.002Z,53.15
2019-04-11T08:17:28.103Z,58.40
2019-04-11T08:18:57.856Z,52.03
2019-04-11T08:20:53.216Z,38.08
2019-04-11T08:22:39.240Z,44.58
2019-04-11T08:24:16.345Z,40.40
2019-04-11T08:26:06.027Z,52.00
2019-04-11T08:27:51.884Z,40.57
2019-04-11T08:29:20.042Z,43.80
2019-04-11T08:30:59.306Z,46.68
2019-04-11T08:32:38.200Z,33.67
2019-04-11T08:34:13.263Z,42.88
2019-04-11T08:36:05.181Z,40.80
2019-04-11T08:37:41.416Z,89.17
2019-04-11T08:39:17.620Z,70.08
2019-04-11T08:41:09.379Z,65.80
2019-04-11T08:42:46.505Z,48.28
2019-04-11T08:44:20.897Z,48.23
2019-04-11T08:45:56.277Z,55.07
2019-04-11T08:47:42.011Z,51.85
2019-04-11T08:49:29.000Z,88.10
2019-04-11T08:51:05.084Z,44.65
2019-04-11T08:52:42.279Z,47.40
2019-04-11T08:54:27.400Z,56.33
2019-04-11T08:56:03.908Z,54.88
2019-04-11T08:57:44.512Z,55.63
2019-04-11T08:59:21.583Z,51.25
2019-04-11T09:01:00.148Z,59.93
2019-04-11T09:02:35.370Z,50.92
2019-04-11T09:04:28.039Z,54.70
2019-04-11T09:06:04.357Z,53.90
2019-04-11T09:07:41.421Z,48.85
2019-04-11T09:09:33.581Z,82.00
2019-04-11T09:11:12.833Z,77.82
2019-04-11T09:12:48.934Z,85.45
2019-04-11T09:14:41.285Z,99.37
2019-04-11T09:16:34.022Z,75.15
2019-04-11T09:18:11.861Z,71.77
2019-04-11T09:19:55.103Z,68.83
2019-04-11T09:21:43.056Z,81.55
2019-04-11T09:23:17.658Z,107.92
2019-04-11T09:25:08.971Z,116.57
2019-04-11T09:27:02.360Z,87.60
2019-04-11T09:28:39.611Z,86.25
2019-04-11T09:30:19.240Z,94.75
2019-04-11T09:32:04.399Z,96.97
2019-04-11T09:33:44.927Z,88.87
2019-04-11T09:35:24.096Z,78.37
2019-04-11T09:37:00.977Z,91.35
2019-04-11T09:38:38.157Z,83.58
2019-04-11T09:40:34.023Z,94.65
2019-04-11T09:42:11.565Z,102.35
2019-04-11T09:43:46.369Z,111.83
2019-04-11T09:45:30.844Z,132.45
2019-04-11T09:47:24.195Z,159.22
2019-04-11T09:49:16.823Z,143.02
2019-04-11T09:50:56.462Z,137.35
2019-04-11T09:52:33.215Z,151.72
2019-04-11T09:54:26.200Z,142.50
2019-04-11T09:56:02.611Z,152.35
2019-04-11T09:57:38.546Z,161.57
2019-04-11T09:59:14.456Z,180.32
2019-04-11T10:01:06.636Z,162.77
2019-04-11T10:03:00.845Z,113.55
2019-04-11T10:04:37.243Z,104.85
2019-04-11T10:06:14.072Z,138.75
2019-04-11T10:07:55.381Z,139.45
2019-04-11T10:09:32.316Z,136.80
2019-04-11T10:11:26.030Z,213.40
2019-04-11T10:13:18.622Z,192.98
2019-04-11T10:14:53.707Z,154.18
2019-04-11T10:16:29.923Z,147.82
2019-04-11T10:18:27.164Z,137.55
2019-04-11T10:19:57.115Z,127.92
2019-04-11T10:21:39.536Z,135.25
2019-04-11T10:23:30.736Z,145.62
2019-04-11T10:25:10.686Z,162.18
2019-04-11T10:26:53.109Z,156.20
2019-04-11T10:28:45.960Z,169.00
2019-04-11T10:30:39.808Z,167.20
2019-04-11T10:32:17.001Z,172.78
2019-04-11T10:33:53.193Z,259.27
2019-04-11T10:35:46.170Z,277.85
2019-04-11T10:37:21.955Z,240.12
2019-04-11T10:39:15.285Z,244.97
2019-04-11T10:41:00.896Z,220.67
2019-04-11T10:42:39.012Z,220.37
2019-04-11T10:44:15.899Z,210.85
2019-04-11T10:45:58.794Z,202.60
2019-04-11T10:47:35.236Z,207.62
2019-04-11T10:49:17.798Z,207.83
2019-04-11T10:51:00.352Z,195.80
2019-04-11T10:52:36.355Z,146.82
2019-04-11T10:54:12.038Z,123.72
2019-04-11T10:55:51.737Z,128.57
2019-04-11T10:57:30.386Z,128.42
2019-04-11T10:59:05.117Z,111.53
2019-04-11T11:00:57.972Z,87.62
2019-04-11T11:02:33.848Z,83.50
2019-04-11T11:04:09.694Z,80.28
2019-04-11T11:05:55.511Z,82.12
2019-04-11T11:07:32.820Z,464.67
2019-04-11T11:09:10.096Z,279.00
2019-04-11T11:10:44.400Z,275.13
2019-04-11T11:12:29.614Z,261.02
2019-04-11T11:14:06.689Z,227.38
2019-04-11T11:15:43.941Z,371.32
2019-04-11T11:17:43.170Z,289.10
2019-04-11T11:19:37.522Z,204.80
2019-04-11T11:20:56.441Z,122.60
2019-04-11T11:22:33.162Z,160.90
2019-04-11T11:24:23.958Z,161.85
2019-04-11T11:26:06.899Z,125.82
2019-04-11T11:27:43.711Z,135.07
2019-04-11T11:29:20.530Z,141.10
2019-04-11T11:31:14.082Z,115.75
2019-04-11T11:32:49.587Z,134.35
2019-04-11T11:34:32.604Z,110.25
2019-04-11T11:36:17.751Z,103.75
2019-04-11T11:37:53.444Z,127.02
2019-04-11T11:39:33.456Z,135.82
2019-04-11T11:41:16.341Z,139.12
2019-04-11T11:43:10.588Z,136.20
2019-04-11T11:44:49.544Z,116.62
2019-04-11T11:46:44.542Z,116.90
2019-04-11T11:48:24.801Z,115.25
2019-04-11T11:50:04.098Z,115.17
2019-04-11T11:51:58.010Z,120.37
2019-04-11T11:53:47.660Z,130.70
2019-04-11T11:55:29.511Z,179.35
2019-04-11T11:57:06.538Z,154.07
2019-04-11T11:58:51.844Z,140.25
2019-04-11T12:00:25.514Z,139.82
2019-04-11T12:02:04.388Z,154.12
2019-04-11T12:03:50.786Z,159.57
2019-04-11T12:05:30.934Z,136.12
2019-04-11T12:07:08.573Z,117.03
2019-04-11T12:08:56.171Z,93.07
2019-04-11T12:10:33.992Z,167.68
2019-04-11T12:12:13.556Z,166.80
2019-04-11T12:13:49.141Z,174.43
2019-04-11T12:15:28.826Z,117.13
2019-04-11T12:17:06.709Z,123.90
2019-04-11T12:18:49.781Z,113.55
2019-04-11T12:20:25.578Z,106.27
2019-04-11T12:22:02.173Z,140.70
2019-04-11T12:24:03.447Z,115.57
2019-04-11T12:25:34.702Z,107.97
2019-04-11T12:27:20.565Z,106.92
2019-04-11T12:28:57.511Z,107.97
2019-04-11T12:30:37.394Z,92.75
2019-04-11T12:32:14.818Z,114.55
2019-04-11T12:34:06.590Z,114.80
2019-04-11T12:35:52.689Z,121.10
2019-04-11T12:37:31.753Z,126.95
2019-04-11T12:39:24.281Z,122.87
2019-04-11T12:41:08.293Z,139.28
2019-04-11T12:42:43.603Z,141.10
2019-04-11T12:44:31.984Z,145.60
2019-04-11T12:46:29.793Z,128.72
2019-04-11T12:48:00.288Z,97.02
2019-04-11T12:49:39.160Z,71.60
2019-04-11T12:51:31.824Z,70.97
2019-04-11T12:53:08.866Z,84.47
2019-04-11T12:54:53.984Z,94.85
2019-04-11T12:56:42.190Z,131.97
2019-04-11T12:58:26.919Z,118.02
2019-04-11T13:00:05.841Z,137.95
2019-04-11T13:01:54.236Z,110.68
2019-04-11T13:03:46.384Z,121.33
2019-04-11T13:05:22.207Z,129.27
2019-04-11T13:07:04.105Z,112.42
2019-04-11T13:08:55.730Z,126.43
2019-04-11T13:10:30.332Z,145.02
2019-04-11T13:12:09.371Z,133.90
2019-04-11T13:13:48.240Z,151.75
2019-04-11T13:15:30.140Z,126.60
2019-04-11T13:17:08.755Z,118.62
2019-04-11T13:19:03.145Z,97.00
2019-04-11T13:20:48.742Z,117.13
2019-04-11T13:22:26.134Z,126.07
2019-04-11T13:24:18.931Z,117.90
2019-04-11T13:26:06.571Z,121.37
2019-04-11T13:27:42.508Z,129.20
2019-04-11T13:29:21.625Z,131.27
2019-04-11T13:31:13.584Z,193.28
2019-04-11T13:32:49.510Z,142.90
2019-04-11T13:34:25.659Z,139.30
2019-04-11T13:36:05.475Z,152.05
2019-04-11T13:37:57.809Z,151.55
2019-04-11T13:39:32.864Z,131.10
2019-04-11T13:41:24.287Z,138.87
2019-04-11T13:43:06.080Z,119.75
2019-04-11T13:44:42.426Z,120.95
2019-04-11T13:46:24.516Z,119.95
2019-04-11T13:48:06.574Z,139.75
2019-04-11T13:49:42.447Z,117.53
2019-04-11T13:51:18.609Z,145.70
2019-04-11T13:53:11.025Z,110.48
2019-04-11T13:54:46.911Z,92.05
2019-04-11T13:56:22.922Z,84.85
2019-04-11T13:58:14.967Z,93.20
2019-04-11T13:59:55.751Z,87.37
2019-04-11T14:01:30.833Z,83.80
2019-04-11T14:03:15.713Z,92.50
2019-04-11T14:04:57.118Z,82.75
2019-04-11T14:06:31.414Z,87.35
2019-04-11T14:08:05.786Z,87.30
2019-04-11T14:09:42.212Z,89.37
2019-04-11T14:11:19.521Z,85.60
2019-04-11T14:13:01.089Z,81.12
2019-04-11T14:14:35.716Z,97.75
2019-04-11T14:16:14.969Z,140.68
2019-04-11T14:18:07.111Z,118.00
2019-04-11T14:19:45.915Z,76.02
2019-04-11T14:21:21.802Z,70.00
2019-04-11T14:23:00.296Z,76.92
2019-04-11T14:24:48.433Z,91.05
2019-04-11T14:26:42.130Z,119.67
2019-04-11T14:28:18.063Z,286.52
2019-04-11T14:29:54.055Z,243.67
2019-04-11T14:31:46.448Z,299.07
2019-04-11T14:33:23.590Z,261.02
2019-04-11T14:35:15.154Z,144.13
2019-04-11T14:37:07.212Z,144.28
2019-04-11T14:38:47.589Z,199.12
2019-04-11T14:40:36.983Z,211.47
2019-04-11T14:42:31.243Z,149.38
2019-04-11T14:44:06.631Z,159.75
2019-04-11T14:45:45.499Z,156.87
2019-04-11T14:47:38.985Z,96.78
2019-04-11T14:49:12.947Z,99.58
2019-04-11T14:50:51.673Z,86.60
2019-04-11T14:52:36.610Z,104.40
2019-04-11T14:54:24.408Z,113.28
2019-04-11T14:56:03.383Z,118.87
2019-04-11T14:57:48.407Z,57.25
2019-04-11T14:59:24.981Z,70.25
2019-04-11T15:00:59.513Z,59.20
2019-04-11T15:02:50.827Z,46.50
2019-04-11T15:04:32.643Z,45.78
2019-04-11T15:06:08.507Z,55.28
2019-04-11T15:07:43.687Z,55.15
2019-04-11T15:09:23.225Z,96.97
2019-04-11T15:11:04.835Z,69.55
2019-04-11T15:12:40.196Z,66.45
2019-04-11T15:14:32.780Z,90.12
2019-04-11T15:16:14.417Z,69.03
2019-04-11T15:17:49.593Z,73.17
2019-04-11T15:19:24.783Z,93.35
2019-04-11T15:21:18.650Z,72.42
2019-04-11T15:22:54.616Z,59.00
2019-04-11T15:24:29.013Z,74.47
2019-04-11T15:26:21.317Z,73.35
2019-04-11T15:27:59.952Z,86.35
2019-04-11T15:29:34.333Z,77.08
2019-04-11T15:31:18.479Z,79.72
2019-04-11T15:33:05.363Z,75.78
2019-04-11T15:34:41.334Z,81.22
2019-04-11T15:36:25.574Z,76.50
2019-04-11T15:40:07.775Z,60.05
2019-04-11T15:41:46.128Z,60.30
2019-04-11T15:43:42.171Z,60.00
2019-04-11T15:45:34.431Z,64.80
2019-04-11T15:47:19.671Z,73.40
2019-04-11T15:49:20.078Z,57.58
2019-04-11T15:50:51.510Z,41.90
2019-04-11T15:52:25.753Z,52.67
2019-04-11T15:54:01.618Z,76.55
2019-04-11T15:55:43.581Z,155.78
2019-04-11T15:57:26.899Z,84.67
2019-04-11T15:59:12.868Z,74.30
2019-04-11T16:00:55.589Z,80.72
2019-04-11T16:02:34.438Z,67.27
2019-04-11T16:04:19.387Z,38.80
2019-04-11T16:06:05.028Z,40.80
2019-04-11T16:07:57.620Z,62.62
2019-04-11T16:09:31.963Z,29.15
2019-04-11T16:11:12.165Z,39.10
2019-04-11T16:13:01.857Z,48.10
2019-04-11T16:14:36.148Z,60.23
2019-04-11T16:38:43.077Z,114.57
2019-04-11T16:40:24.918Z,59.67
2019-04-11T16:42:04.906Z,97.22
2019-04-11T16:43:40.831Z,102.07
2019-04-11T16:45:16.864Z,107.65
2019-04-11T16:47:08.962Z,122.67
2019-04-11T16:48:43.292Z,131.95
2019-04-11T16:50:17.579Z,136.22
2019-04-11T16:51:52.182Z,142.75
2019-04-11T16:53:29.520Z,95.28
2019-04-11T16:55:04.619Z,124.65
2019-04-11T16:56:38.923Z,118.08
2019-04-11T16:58:17.017Z,122.72
2019-04-11T16:59:52.084Z,132.72
2019-04-11T17:01:26.366Z,132.95
2019-04-11T17:03:00.599Z,138.20
2019-04-11T17:04:34.946Z,143.13
2019-04-11T17:06:19.360Z,141.47
2019-04-11T17:07:58.072Z,142.55
2019-04-11T17:09:33.951Z,183.30
2019-04-11T17:11:10.549Z,403.02
2019-04-11T17:12:44.916Z,229.78
2019-04-11T17:14:27.916Z,208.50
2019-04-11T17:15:59.838Z,221.85
2019-04-11T17:17:33.232Z,224.32
2019-04-11T17:19:12.449Z,204.47
2019-04-11T17:20:48.024Z,275.05
2019-04-11T17:22:22.320Z,250.90
2019-04-11T17:23:58.237Z,250.60
2019-04-11T17:25:32.491Z,227.62
2019-04-11T17:27:06.747Z,263.12
2019-04-11T17:28:43.349Z,249.92
2019-04-11T17:30:17.321Z,250.15
2019-04-11T17:31:51.563Z,237.88
2019-04-11T17:33:28.634Z,231.02
2019-04-11T17:35:03.328Z,200.22
2019-04-11T17:36:37.849Z,174.93
2019-04-11T17:38:12.162Z,231.50
2019-04-11T17:39:47.343Z,217.10
2019-04-11T17:41:22.734Z,195.03
2019-04-11T17:42:57.352Z,192.37
2019-04-11T17:44:32.576Z,192.87
2019-04-11T17:46:06.884Z,185.43
2019-04-11T17:47:41.151Z,195.55
2019-04-11T17:49:16.116Z,189.52
2019-04-11T17:50:50.424Z,161.68
2019-04-11T17:52:26.098Z,260.65
2019-04-11T17:54:01.515Z,255.83
2019-04-11T17:55:37.608Z,231.10
2019-04-11T17:57:11.871Z,267.32
2019-04-11T17:58:46.394Z,250.18
2019-04-11T18:00:22.423Z,325.30
2019-04-11T18:01:59.646Z,309.52
2019-04-11T18:03:35.420Z,240.47
2019-04-11T18:05:09.740Z,262.63
2019-04-11T18:06:46.913Z,180.22
2019-04-11T18:08:21.075Z,231.87
2019-04-11T18:09:55.987Z,185.28
2019-04-11T18:11:31.008Z,207.70
2019-04-11T18:13:05.292Z,184.25
2019-04-11T18:14:40.765Z,224.50
2019-04-11T18:16:15.078Z,222.20
2019-04-11T18:17:49.329Z,251.47
2019-04-11T18:19:23.672Z,216.93
2019-04-11T18:20:58.308Z,219.62
2019-04-11T18:22:34.001Z,183.97
2019-04-11T18:24:08.407Z,146.60
2019-04-11T18:25:42.740Z,141.77
2019-04-11T18:27:17.188Z,123.05
2019-04-11T18:28:52.022Z,78.47
2019-04-11T18:30:27.055Z,81.40
2019-04-11T18:32:01.412Z,69.30
2019-04-11T18:33:35.841Z,75.67
2019-04-11T18:35:10.154Z,66.65
2019-04-11T18:36:45.876Z,68.95
2019-04-11T18:38:20.224Z,74.22
2019-04-11T18:39:54.747Z,84.05
2019-04-11T18:41:28.967Z,82.35
2019-04-11T18:43:03.242Z,83.47
2019-04-11T18:44:38.199Z,73.92
2019-04-11T18:46:12.548Z,74.30
2019-04-11T18:47:46.855Z,80.60
2019-04-11T18:49:21.727Z,77.80
2019-04-11T18:50:56.943Z,70.97
2019-04-11T18:52:31.487Z,68.95
2019-04-11T18:54:07.689Z,76.95
2019-04-11T18:55:41.550Z,78.07
2019-04-11T18:57:15.890Z,71.22
2019-04-11T18:58:50.688Z,73.33
2019-04-11T19:00:25.476Z,84.85
2019-04-11T19:02:01.349Z,77.90
2019-04-11T19:03:36.606Z,66.55
2019-04-11T19:05:13.332Z,77.60
2019-04-11T19:06:47.979Z,80.67
2019-04-11T19:08:22.244Z,86.65
2019-04-11T19:09:56.512Z,81.40
2019-04-11T19:11:31.111Z,79.70
2019-04-11T19:13:05.494Z,71.72
2019-04-11T19:14:39.708Z,75.83
2019-04-11T19:16:16.122Z,122.50
2019-04-11T19:17:49.976Z,94.58
2019-04-11T19:19:24.323Z,99.65
2019-04-11T19:20:58.717Z,89.65
2019-04-11T19:22:37.597Z,373.68
2019-04-11T19:24:12.966Z,255.50
2019-04-11T19:25:47.215Z,277.27
2019-04-11T19:27:21.469Z,328.77
2019-04-11T19:28:55.830Z,287.63
2019-04-11T19:30:30.302Z,291.15
2019-04-11T19:32:04.641Z,424.00
2019-04-11T19:33:40.080Z,243.02
2019-04-11T19:35:14.515Z,179.38
2019-04-11T19:36:50.199Z,188.93
2019-04-11T19:38:26.069Z,193.13
2019-04-11T19:40:00.496Z,146.55
2019-04-11T19:41:34.768Z,142.72
2019-04-11T19:43:09.408Z,129.15
2019-04-11T19:44:49.342Z,128.02
2019-04-11T19:46:21.106Z,129.15
2019-04-11T19:47:55.396Z,117.28
2019-04-11T19:49:29.745Z,118.37
2019-04-11T19:51:03.980Z,106.27
2019-04-11T19:52:45.134Z,99.75
2019-04-11T19:54:14.295Z,335.05
2019-04-11T19:55:52.330Z,240.15
2019-04-11T19:57:26.398Z,228.37
2019-04-11T19:59:00.699Z,272.15
2019-04-11T20:00:35.447Z,176.45
2019-04-11T20:02:09.964Z,180.12
2019-04-11T20:03:46.063Z,195.68
2019-04-11T20:05:20.469Z,172.20
2019-04-11T20:06:54.744Z,179.35
2019-04-11T20:08:29.243Z,163.32
2019-04-11T20:10:06.900Z,106.65
2019-04-11T20:11:41.146Z,122.45
2019-04-11T20:13:15.498Z,145.77
2019-04-11T20:14:49.982Z,108.05
2019-04-11T20:16:24.227Z,104.17
2019-04-11T20:17:58.545Z,112.97
2019-04-11T20:19:32.831Z,118.47
2019-04-11T20:21:08.284Z,119.15
2019-04-11T20:22:44.019Z,115.03
2019-04-11T20:24:19.281Z,129.87
2019-04-11T20:25:58.906Z,108.47
2019-04-11T20:27:33.471Z,137.97
2019-04-11T20:29:07.718Z,130.65
2019-04-11T20:30:42.030Z,121.65
2019-04-11T20:32:16.316Z,148.82
2019-04-11T20:33:51.127Z,123.95
2019-04-11T20:35:28.965Z,121.67
2019-04-11T20:37:00.768Z,126.43
2019-04-11T20:38:35.089Z,119.10
2019-04-11T20:40:09.503Z,103.87
2019-04-11T20:41:44.106Z,114.10
2019-04-11T20:43:19.468Z,111.08
2019-04-11T20:44:53.705Z,112.12
2019-04-11T20:46:29.207Z,101.00
2019-04-11T20:48:04.242Z,137.12
2019-04-11T20:49:40.136Z,147.85
2019-04-11T20:51:14.352Z,113.12
2019-04-11T20:52:50.016Z,101.18
2019-04-11T20:54:24.340Z,93.00
2019-04-11T20:55:58.598Z,90.85
2019-04-11T20:57:32.819Z,85.03
2019-04-11T20:59:10.071Z,76.90
2019-04-11T21:00:50.072Z,68.67
2019-04-11T21:02:19.360Z,65.05
2019-04-11T21:03:53.612Z,61.88
2019-04-11T21:05:30.952Z,74.22
2019-04-11T21:07:05.518Z,69.47
2019-04-11T21:08:39.765Z,72.70
2019-04-11T21:10:14.092Z,77.70
2019-04-11T21:11:51.356Z,78.05
2019-04-11T21:13:25.626Z,83.92
2019-04-11T21:14:59.852Z,83.37